createdAt,value
2022-08-21T00:00:02.852Z,17.10
2022-08-21T00:02:29.573Z,17.10
2022-08-21T00:04:57.744Z,17.10
2022-08-21T00:07:25.238Z,17.00
2022-08-21T00:09:52.621Z,16.90
2022-08-21T00:12:19.268Z,16.90
2022-08-21T00:14:45.988Z,16.90
2022-08-21T00:17:13.463Z,16.90
2022-08-21T00:19:40.055Z,16.90
2022-08-21T00:22:06.629Z,16.90
2022-08-21T00:24:33.221Z,16.90
2022-08-21T00:26:59.809Z,17.00
2022-08-21T00:29:26.449Z,17.00
2022-08-21T00:31:53.143Z,17.00
2022-08-21T00:34:19.783Z,17.00
2022-08-21T00:36:46.508Z,16.90
2022-08-21T00:39:13.167Z,16.90
2022-08-21T00:41:40.002Z,16.90
2022-08-21T00:44:10.114Z,16.80
2022-08-21T00:46:37.505Z,16.80
2022-08-21T00:49:05.093Z,16.80
2022-08-21T00:51:39.359Z,16.70
2022-08-21T00:54:06.280Z,16.60
2022-08-21T00:56:38.189Z,16.50
2022-08-21T00:59:04.883Z,16.40
2022-08-21T01:01:31.519Z,16.40
2022-08-21T01:03:58.120Z,16.40
2022-08-21T01:06:24.696Z,16.30
2022-08-21T01:08:51.828Z,16.30
2022-08-21T01:11:18.451Z,16.20
2022-08-21T01:13:47.384Z,16.20
2022-08-21T01:16:15.137Z,16.20
2022-08-21T01:18:41.828Z,16.20
2022-08-21T01:21:12.823Z,16.20
2022-08-21T01:23:40.628Z,16.20
2022-08-21T01:26:07.415Z,16.20
2022-08-21T01:28:35.752Z,16.20
2022-08-21T01:31:02.331Z,16.10
2022-08-21T01:33:29.209Z,16.10
2022-08-21T01:35:55.839Z,16.00
2022-08-21T01:38:22.445Z,15.90
2022-08-21T01:40:49.011Z,15.80
2022-08-21T01:43:15.600Z,15.80
2022-08-21T01:45:50.334Z,15.70
2022-08-21T01:48:16.910Z,15.60
2022-08-21T01:50:43.508Z,15.60
2022-08-21T01:53:10.091Z,15.60
2022-08-21T01:55:36.676Z,15.60
2022-08-21T01:58:03.249Z,15.70
2022-08-21T02:00:30.093Z,15.70
2022-08-21T02:02:57.058Z,15.60
2022-08-21T02:05:23.848Z,15.50
2022-08-21T02:07:51.385Z,15.50
2022-08-21T02:10:36.102Z,15.50
2022-08-21T02:13:02.886Z,15.40
2022-08-21T02:15:29.627Z,15.40
2022-08-21T02:17:57.305Z,15.30
2022-08-21T02:20:31.156Z,15.30
2022-08-21T02:22:57.807Z,15.30
2022-08-21T02:25:24.830Z,15.30
2022-08-21T02:27:51.519Z,15.20
2022-08-21T02:30:20.696Z,15.20
2022-08-21T02:32:47.507Z,15.10
2022-08-21T02:35:14.231Z,15.00
2022-08-21T02:37:47.869Z,15.00
2022-08-21T02:40:14.597Z,15.00
2022-08-21T02:42:41.211Z,14.90
2022-08-21T02:45:08.069Z,14.90
2022-08-21T02:47:34.635Z,14.80
2022-08-21T02:50:01.237Z,14.80
2022-08-21T02:52:28.087Z,14.80
2022-08-21T02:54:54.684Z,14.70
2022-08-21T02:57:21.264Z,14.70
2022-08-21T02:59:47.953Z,14.60
2022-08-21T03:02:14.915Z,14.50
2022-08-21T03:04:46.423Z,14.50
2022-08-21T03:07:13.330Z,14.50
2022-08-21T03:09:50.751Z,14.40
2022-08-21T03:12:22.609Z,14.40
2022-08-21T03:14:49.200Z,14.40
2022-08-21T03:17:15.781Z,14.30
2022-08-21T03:19:42.395Z,14.30
2022-08-21T03:22:08.969Z,14.30
2022-08-21T03:24:35.577Z,14.40
2022-08-21T03:27:02.144Z,14.30
2022-08-21T03:29:28.726Z,14.30
2022-08-21T03:31:55.405Z,14.30
2022-08-21T03:34:22.084Z,14.20
2022-08-21T03:36:49.949Z,14.20
2022-08-21T03:39:17.164Z,14.20
2022-08-21T03:41:43.775Z,14.20
2022-08-21T03:44:10.360Z,14.20
2022-08-21T03:46:36.939Z,14.20
2022-08-21T03:49:03.721Z,14.20
2022-08-21T03:51:30.860Z,14.10
2022-08-21T03:53:57.455Z,14.10
2022-08-21T03:56:24.846Z,14.00
2022-08-21T03:58:51.445Z,14.00
2022-08-21T04:01:18.078Z,13.90
2022-08-21T04:03:44.900Z,13.80
2022-08-21T04:06:11.737Z,13.70
2022-08-21T04:08:38.980Z,13.70
2022-08-21T04:11:07.327Z,13.70
2022-08-21T04:13:34.141Z,13.70
2022-08-21T04:16:00.733Z,13.70
2022-08-21T04:18:27.368Z,13.70
2022-08-21T04:20:54.119Z,13.80
2022-08-21T04:23:23.537Z,13.70
2022-08-21T04:25:51.237Z,13.70
2022-08-21T04:28:17.810Z,13.70
2022-08-21T04:30:45.253Z,13.80
2022-08-21T04:33:11.829Z,13.80
2022-08-21T04:35:38.421Z,13.70
2022-08-21T04:38:04.991Z,13.70
2022-08-21T04:40:31.633Z,13.70
2022-08-21T04:43:00.753Z,13.70
2022-08-21T04:45:28.505Z,13.70
2022-08-21T04:47:56.219Z,13.70
2022-08-21T04:50:23.498Z,13.70
2022-08-21T04:52:50.081Z,13.80
2022-08-21T04:55:17.404Z,13.90
2022-08-21T04:57:49.298Z,14.10
2022-08-21T05:00:19.803Z,14.20
2022-08-21T05:02:48.674Z,14.30
2022-08-21T05:05:15.729Z,14.50
2022-08-21T05:07:43.186Z,14.70
2022-08-21T05:10:09.864Z,15.00
2022-08-21T05:12:39.033Z,15.30
2022-08-21T05:15:05.754Z,15.50
2022-08-21T05:17:32.421Z,16.00
2022-08-21T05:19:59.037Z,16.50
2022-08-21T05:22:25.605Z,16.90
2022-08-21T05:24:52.242Z,17.40
2022-08-21T05:27:18.820Z,18.00
2022-08-21T05:29:46.661Z,18.40
2022-08-21T05:32:13.377Z,18.90
2022-08-21T05:34:39.962Z,19.40
2022-08-21T05:37:07.763Z,19.90
2022-08-21T05:40:05.392Z,20.10
2022-08-21T05:42:21.506Z,20.40
2022-08-21T05:44:48.092Z,20.80
2022-08-21T05:47:15.876Z,21.40
2022-08-21T05:49:42.466Z,22.10
2022-08-21T05:52:09.040Z,22.40
2022-08-21T05:54:37.435Z,22.60
2022-08-21T05:57:04.097Z,23.00
2022-08-21T05:59:30.688Z,23.30
2022-08-21T06:01:57.335Z,23.90
2022-08-21T06:04:23.969Z,24.30
2022-08-21T06:06:50.549Z,24.40
2022-08-21T06:09:17.145Z,24.40
2022-08-21T06:11:43.889Z,25.10
2022-08-21T06:14:10.529Z,25.60
2022-08-21T06:16:37.137Z,26.00
2022-08-21T06:19:03.741Z,26.40
2022-08-21T06:21:30.332Z,26.90
2022-08-21T06:23:56.922Z,27.30
2022-08-21T06:26:24.617Z,27.60
2022-08-21T06:28:51.189Z,27.70
2022-08-21T06:31:19.327Z,28.00
2022-08-21T06:33:46.021Z,28.20
2022-08-21T06:36:12.714Z,28.40
2022-08-21T06:38:39.371Z,28.10
2022-08-21T06:41:06.204Z,27.90
2022-08-21T06:43:39.746Z,28.30
2022-08-21T06:46:07.121Z,28.50
2022-08-21T06:48:34.970Z,28.70
2022-08-21T06:51:01.612Z,28.80
2022-08-21T06:53:28.237Z,29.00
2022-08-21T06:55:54.989Z,29.30
2022-08-21T06:58:21.643Z,29.50
2022-08-21T07:00:49.872Z,29.90
2022-08-21T07:03:28.087Z,29.80
2022-08-21T07:05:54.907Z,30.20
2022-08-21T07:08:21.953Z,30.50
2022-08-21T07:10:49.277Z,30.50
2022-08-21T07:13:15.913Z,30.40
2022-08-21T07:15:42.662Z,30.10
2022-08-21T07:18:09.345Z,30.00
2022-08-21T07:20:35.990Z,30.10
2022-08-21T07:23:04.519Z,29.90
2022-08-21T07:25:31.181Z,30.00
2022-08-21T07:27:57.832Z,30.00
2022-08-21T07:30:24.850Z,30.20
2022-08-21T07:32:51.510Z,30.30
2022-08-21T07:35:18.701Z,29.90
2022-08-21T07:37:46.442Z,28.80
2022-08-21T07:40:13.338Z,27.40
2022-08-21T07:42:43.663Z,26.60
2022-08-21T07:45:10.670Z,27.30
2022-08-21T07:47:42.211Z,28.40
2022-08-21T07:50:09.625Z,28.80
2022-08-21T07:52:36.240Z,29.30
2022-08-21T07:55:06.020Z,29.70
2022-08-21T07:57:33.437Z,29.80
2022-08-21T08:00:00.077Z,30.10
2022-08-21T08:02:27.503Z,29.90
2022-08-21T08:04:54.320Z,30.10
2022-08-21T08:07:20.948Z,30.10
2022-08-21T08:09:47.593Z,30.40
2022-08-21T08:12:14.292Z,30.90
2022-08-21T08:14:40.949Z,31.30
2022-08-21T08:17:07.558Z,31.10
2022-08-21T08:19:34.170Z,30.60
2022-08-21T08:22:01.111Z,30.20
2022-08-21T08:24:27.753Z,30.60
2022-08-21T08:26:55.054Z,30.70
2022-08-21T08:29:22.280Z,31.00
2022-08-21T08:31:48.865Z,30.40
2022-08-21T08:34:23.338Z,30.10
2022-08-21T08:36:51.560Z,29.60
2022-08-21T08:39:26.321Z,29.00
2022-08-21T08:41:58.625Z,28.20
2022-08-21T08:44:25.562Z,27.50
2022-08-21T08:46:57.576Z,27.20
2022-08-21T08:49:25.509Z,26.90
2022-08-21T08:51:55.833Z,26.80
2022-08-21T08:54:32.337Z,26.50
2022-08-21T08:57:02.573Z,26.60
2022-08-21T08:59:39.259Z,26.70
2022-08-21T09:02:07.304Z,26.70
2022-08-21T09:04:33.929Z,26.90
2022-08-21T09:07:15.738Z,26.50
2022-08-21T09:10:01.307Z,26.30
2022-08-21T09:12:45.333Z,26.10
2022-08-21T09:15:14.958Z,26.20
2022-08-21T09:17:41.673Z,26.20
2022-08-21T09:20:20.419Z,26.20
2022-08-21T09:22:46.940Z,26.00
2022-08-21T09:25:21.677Z,25.70
2022-08-21T09:27:51.569Z,25.90
2022-08-21T09:30:18.405Z,26.00
2022-08-21T09:32:44.987Z,26.40
2022-08-21T09:35:12.729Z,26.80
2022-08-21T09:38:09.044Z,27.10
2022-08-21T09:40:48.533Z,26.90
2022-08-21T09:43:15.383Z,27.20
2022-08-21T09:45:42.833Z,27.10
2022-08-21T09:48:19.217Z,27.00
2022-08-21T09:50:45.834Z,27.20
2022-08-21T09:53:16.681Z,27.30
2022-08-21T09:56:09.392Z,27.30
2022-08-21T09:58:39.488Z,27.50
2022-08-21T10:01:06.428Z,27.50
2022-08-21T10:03:33.294Z,27.80
2022-08-21T10:06:09.772Z,27.80
2022-08-21T10:08:37.259Z,28.00
2022-08-21T10:11:03.849Z,28.10
2022-08-21T10:13:39.217Z,28.10
2022-08-21T10:16:14.869Z,28.10
2022-08-21T10:18:48.074Z,27.70
2022-08-21T10:21:24.845Z,27.20
2022-08-21T10:24:21.388Z,26.60
2022-08-21T10:26:59.918Z,26.30
2022-08-21T10:29:43.131Z,26.10
2022-08-21T10:32:22.448Z,26.20
2022-08-21T10:34:57.189Z,26.00
2022-08-21T10:37:33.172Z,26.30
2022-08-21T10:40:02.671Z,25.80
2022-08-21T10:42:31.984Z,25.50
2022-08-21T10:45:25.769Z,25.70
2022-08-21T10:47:58.012Z,26.30
2022-08-21T10:50:31.989Z,26.90
2022-08-21T10:53:17.190Z,27.30
2022-08-21T10:56:02.257Z,27.70
2022-08-21T10:58:30.160Z,27.70
2022-08-21T11:00:58.737Z,27.50
2022-08-21T11:03:30.489Z,27.10
2022-08-21T11:06:16.692Z,27.40
2022-08-21T11:08:44.429Z,27.50
2022-08-21T11:11:22.205Z,27.90
2022-08-21T11:14:00.217Z,27.90
2022-08-21T11:16:29.791Z,27.90
2022-08-21T11:19:16.794Z,27.40
2022-08-21T11:21:44.216Z,27.10
2022-08-21T11:24:10.734Z,27.00
2022-08-21T11:26:42.449Z,27.10
2022-08-21T11:29:29.250Z,27.20
2022-08-21T11:31:55.784Z,27.40
2022-08-21T11:34:26.013Z,27.60
2022-08-21T11:36:56.019Z,27.30
2022-08-21T11:39:39.033Z,27.00
2022-08-21T11:42:24.560Z,26.70
2022-08-21T11:45:04.303Z,26.60
2022-08-21T11:47:36.829Z,26.70
2022-08-21T11:50:34.492Z,26.80
2022-08-21T11:53:22.187Z,26.90
2022-08-21T11:56:00.554Z,26.60
2022-08-21T11:58:29.142Z,26.40
2022-08-21T12:01:04.691Z,26.80
2022-08-21T12:03:35.298Z,27.20
2022-08-21T12:06:03.282Z,27.50
2022-08-21T12:08:31.358Z,27.60
2022-08-21T12:11:21.230Z,27.90
2022-08-21T12:13:54.661Z,28.10
2022-08-21T12:16:34.187Z,28.20
2022-08-21T12:19:05.028Z,27.90
2022-08-21T12:21:31.625Z,27.40
2022-08-21T12:24:13.606Z,27.00
2022-08-21T12:26:50.420Z,26.80
2022-08-21T12:29:28.001Z,26.50
2022-08-21T12:32:02.199Z,26.50
2022-08-21T12:34:31.857Z,26.60
2022-08-21T12:37:00.057Z,26.90
2022-08-21T12:39:27.749Z,27.20
2022-08-21T12:42:01.945Z,27.50
2022-08-21T12:44:30.989Z,27.80
2022-08-21T12:47:03.574Z,28.10
2022-08-21T12:49:35.037Z,28.10
2022-08-21T12:52:17.890Z,28.20
2022-08-21T12:54:44.589Z,28.10
2022-08-21T12:57:19.075Z,28.10
2022-08-21T12:59:45.673Z,28.20
2022-08-21T13:02:19.719Z,28.30
2022-08-21T13:04:46.813Z,28.50
2022-08-21T13:07:15.188Z,28.40
2022-08-21T13:09:49.346Z,28.30
2022-08-21T13:12:16.088Z,27.80
2022-08-21T13:14:45.907Z,27.30
2022-08-21T13:17:23.597Z,27.20
2022-08-21T13:19:59.929Z,27.50
2022-08-21T13:22:33.424Z,27.90
2022-08-21T13:25:07.044Z,28.00
2022-08-21T13:27:34.446Z,27.90
2022-08-21T13:30:02.110Z,28.10
2022-08-21T13:32:28.786Z,28.30
2022-08-21T13:34:55.555Z,28.10
2022-08-21T13:37:22.134Z,28.40
2022-08-21T13:39:54.817Z,28.40
2022-08-21T13:42:21.425Z,28.50
2022-08-21T13:44:48.251Z,28.70
2022-08-21T13:47:15.409Z,28.90
2022-08-21T13:49:44.642Z,28.80
2022-08-21T13:52:21.553Z,28.60
2022-08-21T13:54:53.184Z,28.40
2022-08-21T13:57:20.440Z,28.30
2022-08-21T13:59:47.443Z,28.10
2022-08-21T14:02:18.132Z,28.30
2022-08-21T14:04:53.567Z,28.30
2022-08-21T14:07:22.172Z,28.20
2022-08-21T14:09:48.755Z,28.20
2022-08-21T14:12:23.244Z,28.30
2022-08-21T14:14:50.281Z,28.30
2022-08-21T14:17:32.819Z,28.40
2022-08-21T14:20:00.500Z,28.40
2022-08-21T14:22:30.131Z,28.30
2022-08-21T14:25:01.288Z,28.20
2022-08-21T14:27:31.564Z,28.30
2022-08-21T14:29:58.851Z,28.50
2022-08-21T14:32:26.956Z,28.70
2022-08-21T14:34:54.483Z,28.60
2022-08-21T14:37:22.024Z,28.40
2022-08-21T14:39:48.654Z,28.30
2022-08-21T14:42:15.270Z,28.00
2022-08-21T14:44:42.071Z,27.80
2022-08-21T14:47:08.953Z,27.60
2022-08-21T14:49:35.508Z,27.40
2022-08-21T14:52:02.263Z,27.40
2022-08-21T14:54:31.632Z,27.40
2022-08-21T14:57:03.361Z,27.40
2022-08-21T14:59:30.358Z,27.30
2022-08-21T15:01:57.240Z,27.40
2022-08-21T15:04:23.834Z,27.60
2022-08-21T15:06:50.446Z,27.70
2022-08-21T15:09:17.189Z,27.80
2022-08-21T15:11:44.226Z,27.90
2022-08-21T15:14:11.838Z,27.80
2022-08-21T15:16:38.444Z,27.70
2022-08-21T15:19:04.988Z,27.50
2022-08-21T15:21:31.557Z,27.20
2022-08-21T15:23:58.116Z,27.00
2022-08-21T15:26:24.681Z,26.80
2022-08-21T15:28:51.452Z,26.80
2022-08-21T15:31:18.274Z,27.00
2022-08-21T15:33:44.888Z,27.20
2022-08-21T15:36:11.480Z,27.40
2022-08-21T15:38:38.083Z,27.40
2022-08-21T15:41:04.682Z,27.40
2022-08-21T15:43:31.969Z,27.10
2022-08-21T15:45:59.026Z,26.90
2022-08-21T15:48:25.623Z,26.80
2022-08-21T15:50:52.255Z,26.80
2022-08-21T15:53:18.838Z,26.90
2022-08-21T15:55:45.496Z,26.90
2022-08-21T15:58:16.028Z,26.90
2022-08-21T16:00:44.978Z,26.80
2022-08-21T16:03:12.805Z,26.70
2022-08-21T16:05:39.452Z,26.60
2022-08-21T16:08:06.061Z,26.60
2022-08-21T16:10:32.696Z,26.60
2022-08-21T16:13:00.758Z,26.50
2022-08-21T16:15:27.692Z,26.40
2022-08-21T16:17:54.301Z,26.50
2022-08-21T16:20:26.344Z,26.30
2022-08-21T16:22:53.576Z,26.30
2022-08-21T16:25:20.269Z,26.20
2022-08-21T16:27:47.967Z,26.00
2022-08-21T16:30:15.388Z,25.80
2022-08-21T16:32:42.368Z,25.60
2022-08-21T16:35:10.783Z,25.60
2022-08-21T16:37:37.385Z,25.60
2022-08-21T16:40:04.391Z,25.60
2022-08-21T16:42:31.094Z,25.60
2022-08-21T16:44:57.717Z,25.60
2022-08-21T16:47:26.437Z,25.50
2022-08-21T16:49:54.376Z,25.50
2022-08-21T16:52:20.974Z,25.40
2022-08-21T16:54:47.570Z,25.30
2022-08-21T16:57:14.984Z,25.20
2022-08-21T16:59:41.615Z,25.20
2022-08-21T17:02:15.328Z,25.10
2022-08-21T17:04:41.920Z,25.20
2022-08-21T17:07:08.546Z,25.20
2022-08-21T17:09:35.252Z,25.10
2022-08-21T17:12:01.865Z,25.00
2022-08-21T17:14:28.704Z,25.00
2022-08-21T17:16:55.348Z,24.80
2022-08-21T17:19:22.304Z,24.70
2022-08-21T17:21:49.226Z,24.60
2022-08-21T17:24:16.147Z,24.40
2022-08-21T17:26:43.097Z,24.20
2022-08-21T17:29:10.134Z,24.10
2022-08-21T17:31:37.675Z,24.00
2022-08-21T17:34:06.060Z,23.90
2022-08-21T17:36:32.798Z,23.80
2022-08-21T17:38:59.535Z,23.70
2022-08-21T17:41:26.284Z,23.60
2022-08-21T17:43:52.953Z,23.50
2022-08-21T17:46:20.185Z,23.40
2022-08-21T17:48:47.398Z,23.30
2022-08-21T17:51:14.495Z,23.20
2022-08-21T17:53:41.222Z,23.10
2022-08-21T17:56:07.831Z,23.00
2022-08-21T17:58:34.460Z,22.90
2022-08-21T18:01:03.765Z,22.90
2022-08-21T18:03:30.628Z,22.80
2022-08-21T18:06:03.727Z,22.70
2022-08-21T18:08:31.993Z,22.70
2022-08-21T18:10:59.083Z,22.60
2022-08-21T18:13:27.095Z,22.60
2022-08-21T18:15:54.144Z,22.50
2022-08-21T18:18:21.454Z,22.50
2022-08-21T18:20:48.486Z,22.40
2022-08-21T18:23:15.085Z,22.30
2022-08-21T18:25:43.331Z,22.30
2022-08-21T18:28:09.965Z,22.20
2022-08-21T18:30:37.556Z,22.00
2022-08-21T18:33:04.291Z,21.90
2022-08-21T18:35:32.541Z,21.80
2022-08-21T18:37:59.529Z,21.70
2022-08-21T18:40:26.259Z,21.60
2022-08-21T18:42:55.506Z,21.60
2022-08-21T18:45:22.653Z,21.50
2022-08-21T18:47:50.682Z,21.50
2022-08-21T18:50:18.523Z,21.40
2022-08-21T18:52:52.743Z,21.30
2022-08-21T18:55:20.461Z,21.20
2022-08-21T18:57:50.274Z,21.20
2022-08-21T19:00:19.287Z,21.10
2022-08-21T19:02:46.292Z,21.00
2022-08-21T19:05:13.810Z,20.90
2022-08-21T19:07:40.393Z,20.70
2022-08-21T19:10:24.361Z,20.60
2022-08-21T19:12:51.595Z,20.50
2022-08-21T19:15:18.962Z,20.40
2022-08-21T19:17:50.591Z,20.30
2022-08-21T19:20:36.991Z,20.20
2022-08-21T19:23:04.419Z,20.10
2022-08-21T19:25:33.919Z,20.00
2022-08-21T19:28:01.569Z,20.00
2022-08-21T19:30:30.724Z,19.90
2022-08-21T19:32:57.465Z,19.90
2022-08-21T19:35:24.266Z,19.80
2022-08-21T19:37:51.253Z,19.80
2022-08-21T19:40:19.203Z,19.80
2022-08-21T19:42:48.900Z,19.80
2022-08-21T19:45:15.643Z,19.80
2022-08-21T19:47:42.931Z,19.80
2022-08-21T19:50:17.387Z,19.80
2022-08-21T19:52:51.468Z,19.80
2022-08-21T19:55:19.280Z,19.70
2022-08-21T19:57:46.039Z,19.80
2022-08-21T20:00:13.164Z,19.80
2022-08-21T20:02:47.832Z,19.80
2022-08-21T20:05:14.963Z,19.70
2022-08-21T20:07:41.545Z,19.70
2022-08-21T20:10:08.541Z,19.70
2022-08-21T20:12:37.399Z,19.60
2022-08-21T20:15:04.163Z,19.60
2022-08-21T20:17:34.389Z,19.60
2022-08-21T20:20:00.977Z,19.60
2022-08-21T20:22:47.557Z,19.60
2022-08-21T20:25:14.917Z,19.50
2022-08-21T20:27:41.505Z,19.40
2022-08-21T20:30:08.621Z,19.40
2022-08-21T20:32:35.225Z,19.30
2022-08-21T20:35:02.025Z,19.20
2022-08-21T20:37:37.021Z,19.00
2022-08-21T20:40:09.052Z,18.80
2022-08-21T20:42:35.712Z,18.70
2022-08-21T20:45:08.355Z,18.70
2022-08-21T20:47:35.670Z,18.70
2022-08-21T20:50:08.187Z,18.60
2022-08-21T20:52:38.823Z,18.60
2022-08-21T20:55:09.912Z,18.50
2022-08-21T20:57:54.962Z,18.50
2022-08-21T21:00:23.096Z,18.60
2022-08-21T21:02:49.685Z,18.60
2022-08-21T21:05:18.102Z,18.60
2022-08-21T21:07:50.831Z,18.60
2022-08-21T21:10:29.360Z,18.60
2022-08-21T21:12:58.418Z,18.60
2022-08-21T21:15:27.898Z,18.70
2022-08-21T21:17:58.058Z,18.70
2022-08-21T21:20:30.436Z,18.70
2022-08-21T21:22:58.166Z,18.70
2022-08-21T21:28:17.583Z,18.70
2022-08-21T21:30:46.660Z,18.60
2022-08-21T21:33:16.272Z,18.50
2022-08-21T21:35:49.167Z,18.50
2022-08-21T21:38:21.924Z,18.40
2022-08-21T21:40:51.509Z,18.40
2022-08-21T21:43:25.301Z,18.40
2022-08-21T21:45:57.312Z,18.40
2022-08-21T21:48:30.313Z,18.40
2022-08-21T21:54:03.987Z,18.20
2022-08-21T21:56:46.118Z,18.10
2022-08-21T21:59:16.081Z,18.00
2022-08-21T22:01:42.774Z,18.00
2022-08-21T22:04:23.573Z,17.90
2022-08-21T22:07:25.137Z,17.90
2022-08-21T22:09:56.601Z,17.80
2022-08-21T22:12:31.432Z,17.70
2022-08-21T22:14:58.127Z,17.70
2022-08-21T22:17:30.785Z,17.60
2022-08-21T22:19:57.493Z,17.60
2022-08-21T22:22:25.448Z,17.50
2022-08-21T22:24:58.621Z,17.40
2022-08-21T22:27:27.445Z,17.30
2022-08-21T22:29:55.458Z,17.10
2022-08-21T22:32:24.331Z,17.10
2022-08-21T22:35:00.354Z,17.00
2022-08-21T22:37:33.298Z,16.90
2022-08-21T22:39:59.911Z,16.80
2022-08-21T22:42:27.455Z,16.70
2022-08-21T22:45:04.876Z,16.70
2022-08-21T22:47:42.070Z,16.70
2022-08-21T22:50:19.394Z,16.70
2022-08-21T22:52:47.526Z,16.60
2022-08-21T22:55:23.117Z,16.60
2022-08-21T22:58:08.277Z,16.50
2022-08-21T23:00:43.497Z,16.40
2022-08-21T23:03:17.303Z,16.40
2022-08-21T23:05:44.276Z,16.40
2022-08-21T23:11:12.699Z,16.30
2022-08-21T23:13:41.732Z,16.30
2022-08-21T23:16:23.835Z,16.30
2022-08-21T23:18:57.746Z,16.20
2022-08-21T23:21:28.449Z,16.20
2022-08-21T23:24:02.086Z,16.20
2022-08-21T23:26:31.273Z,16.20
2022-08-21T23:32:18.388Z,16.20
2022-08-21T23:34:45.838Z,16.00
2022-08-21T23:37:48.625Z,16.00
2022-08-21T23:40:20.996Z,15.90
2022-08-21T23:43:13.977Z,15.80
2022-08-21T23:45:49.546Z,15.70
2022-08-21T23:48:29.536Z,15.70
2022-08-21T23:51:00.911Z,15.60
2022-08-21T23:54:03.828Z,15.50
2022-08-21T23:56:47.125Z,15.40
2022-08-21T23:59:32.570Z,15.30
